createdAt,value
2019-04-27T00:05:07.726Z,10.75
2019-04-27T00:15:07.807Z,10.49
2019-04-27T00:25:07.780Z,10.35
2019-04-27T00:35:07.739Z,10.28
2019-04-27T00:45:07.735Z,10.29
2019-04-27T00:55:07.794Z,10.22
2019-04-27T01:05:07.892Z,10.18
2019-04-27T01:15:07.664Z,10.11
2019-04-27T01:25:08.799Z,10.05
2019-04-27T01:35:08.618Z,9.91
2019-04-27T01:45:08.529Z,9.77
2019-04-27T01:55:08.599Z,9.75
2019-04-27T02:05:08.939Z,9.76
2019-04-27T02:15:08.849Z,9.68
2019-04-27T02:25:09.075Z,9.63
2019-04-27T02:35:09.171Z,9.55
2019-04-27T02:45:09.628Z,9.49
2019-04-27T02:55:09.534Z,9.53
2019-04-27T03:05:10.651Z,9.60
2019-04-27T03:15:10.203Z,9.72
2019-04-27T03:25:09.848Z,9.80
2019-04-27T03:35:12.335Z,9.68
2019-04-27T03:45:10.440Z,9.58
2019-04-27T03:55:10.138Z,9.54
2019-04-27T04:05:09.873Z,9.50
2019-04-27T04:15:09.962Z,9.44
2019-04-27T04:25:10.470Z,9.30
2019-04-27T04:35:10.261Z,9.22
2019-04-27T04:45:10.364Z,9.09
2019-04-27T04:55:09.702Z,9.07
2019-04-27T05:05:09.377Z,9.11
2019-04-27T05:15:09.147Z,9.23
2019-04-27T05:25:09.312Z,9.31
2019-04-27T05:35:08.839Z,9.42
2019-04-27T05:45:09.274Z,9.58
2019-04-27T05:55:08.728Z,9.58
2019-04-27T06:05:08.814Z,9.63
2019-04-27T06:15:09.512Z,9.82
2019-04-27T06:25:11.357Z,10.05
2019-04-27T06:35:09.158Z,10.54
2019-04-27T06:45:09.682Z,10.53
2019-04-27T06:55:09.227Z,10.29
2019-04-27T07:05:08.952Z,10.02
2019-04-27T07:15:08.863Z,9.98
2019-04-27T07:25:09.064Z,10.16
2019-04-27T07:35:09.667Z,10.12
2019-04-27T07:45:09.341Z,10.17
2019-04-27T07:55:08.685Z,10.34
2019-04-27T08:05:09.326Z,10.09
2019-04-27T08:15:08.940Z,10.09
2019-04-27T08:25:09.381Z,8.68
2019-04-27T08:35:09.439Z,7.05
2019-04-27T08:45:09.433Z,7.23
2019-04-27T08:55:09.402Z,7.64
2019-04-27T09:05:09.409Z,8.03
2019-04-27T09:15:07.911Z,8.12
2019-04-27T09:25:09.313Z,8.27
2019-04-27T09:35:07.809Z,8.39
2019-04-27T09:45:07.737Z,8.40
2019-04-27T09:55:08.541Z,8.63
2019-04-27T10:05:07.659Z,8.84
2019-04-27T10:15:07.787Z,9.22
2019-04-27T10:25:07.666Z,9.26
2019-04-27T10:35:07.865Z,9.51
2019-04-27T10:45:07.683Z,9.19
2019-04-27T10:55:07.751Z,8.72
2019-04-27T11:05:07.746Z,7.65
2019-04-27T11:15:08.430Z,7.64
2019-04-27T11:25:07.683Z,8.05
2019-04-27T11:35:07.744Z,8.29
2019-04-27T11:45:07.711Z,8.76
2019-04-27T11:55:07.657Z,9.52
2019-04-27T12:05:08.012Z,10.57
2019-04-27T12:15:07.700Z,11.22
2019-04-27T12:25:07.666Z,11.88
2019-04-27T12:35:07.701Z,12.58
2019-04-27T12:45:07.697Z,12.69
2019-04-27T12:55:07.701Z,12.00
2019-04-27T13:05:07.728Z,9.04
2019-04-27T13:15:07.734Z,10.65
2019-04-27T13:25:07.708Z,11.31
2019-04-27T13:35:07.742Z,11.74
2019-04-27T13:45:07.694Z,11.78
2019-04-27T13:55:07.666Z,12.59
2019-04-27T14:05:07.745Z,12.54
2019-04-27T14:15:08.670Z,9.53
2019-04-27T14:25:08.627Z,10.29
2019-04-27T14:35:08.433Z,12.14
2019-04-27T14:45:08.987Z,13.10
2019-04-27T14:55:08.638Z,13.04
2019-04-27T15:05:07.648Z,12.48
2019-04-27T15:15:07.758Z,11.97
2019-04-27T15:25:12.493Z,10.91
2019-04-27T15:35:09.630Z,10.63
2019-04-27T15:45:08.947Z,10.99
2019-04-27T15:55:30.814Z,11.53
2019-04-27T16:05:08.244Z,11.64
2019-04-27T16:15:08.090Z,11.22
2019-04-27T16:25:08.334Z,10.68
2019-04-27T16:35:07.859Z,9.63
2019-04-27T16:45:08.592Z,9.71
2019-04-27T16:55:08.679Z,9.92
2019-04-27T17:05:08.398Z,10.00
2019-04-27T17:15:10.626Z,9.98
2019-04-27T17:25:08.969Z,10.05
2019-04-27T17:35:12.972Z,10.10
2019-04-27T17:45:09.029Z,9.92
2019-04-27T17:55:07.967Z,9.82
2019-04-27T18:05:09.624Z,9.78
2019-04-27T18:15:10.525Z,9.73
2019-04-27T18:25:09.546Z,9.13
2019-04-27T18:35:08.128Z,8.26
2019-04-27T18:45:08.398Z,8.43
2019-04-27T18:55:10.967Z,8.49
2019-04-27T19:05:08.867Z,8.55
2019-04-27T19:15:08.168Z,8.67
2019-04-27T19:25:09.445Z,8.76
2019-04-27T19:35:07.653Z,8.77
2019-04-27T19:45:07.627Z,8.87
2019-04-27T19:55:08.506Z,8.94
2019-04-27T20:05:07.645Z,9.00
2019-04-27T20:15:07.611Z,9.05
2019-04-27T20:25:07.697Z,9.01
2019-04-27T20:35:07.869Z,9.00
2019-04-27T20:45:07.821Z,8.98
2019-04-27T20:55:07.704Z,8.97
2019-04-27T21:05:07.648Z,8.99
2019-04-27T21:15:07.646Z,8.98
2019-04-27T21:25:07.687Z,8.89
2019-04-27T21:35:07.676Z,8.60
2019-04-27T21:45:07.602Z,8.38
2019-04-27T21:55:07.695Z,8.25
2019-04-27T22:05:07.653Z,8.17
2019-04-27T22:15:07.611Z,8.10
2019-04-27T22:25:07.897Z,8.12
2019-04-27T22:35:07.634Z,8.12
2019-04-27T22:45:07.674Z,8.10
2019-04-27T22:55:07.661Z,8.13
2019-04-27T23:05:07.727Z,8.10
2019-04-27T23:15:07.696Z,8.06
2019-04-27T23:25:07.669Z,8.05
2019-04-27T23:35:07.599Z,7.95
2019-04-27T23:45:07.604Z,7.89
2019-04-27T23:55:07.660Z,7.86
